Time,TemperatureF,DewpointF,PressureIn,WindDirection,WindDirectionDegrees,WindSpeedMPH,WindSpeedGustMPH,Humidity,HourlyPrecipIn,Conditions,Clouds,dailyrainin,SoftwareType,DateUTC
2013-09-13 00:01:00,68.1,67.5,29.60,South,184,0.0,0.0,98,0.00,,,0.11,Wunderground v.1.15,2013-09-13 04:01:00,
2013-09-13 00:02:00,68.1,67.5,29.60,South,184,0.0,0.0,98,0.00,,,0.11,Wunderground v.1.15,2013-09-13 04:02:00,
2013-09-13 00:04:00,68.1,67.5,29.60,South,184,0.0,0.0,98,0.00,,,0.11,Wunderground v.1.15,2013-09-13 04:04:00,
2013-09-13 00:09:00,68.1,67.5,29.60,South,182,0.0,5.0,98,0.00,,,0.11,Wunderground v.1.15,2013-09-13 04:09:00,
2013-09-13 00:13:00,68.1,67.5,29.60,South,182,0.0,1.0,98,0.00,,,0.11,Wunderground v.1.15,2013-09-13 04:13:00,
2013-09-13 00:18:00,68.1,67.5,29.60,South,181,0.0,2.0,98,0.00,,,0.11,Wunderground v.1.15,2013-09-13 04:18:00,
2013-09-13 00:24:00,68.1,67.5,29.60,South,181,0.0,1.0,98,0.00,,,0.11,Wunderground v.1.15,2013-09-13 04:24:00,
2013-09-13 00:29:00,68.1,67.5,29.60,South,181,0.0,1.0,98,0.00,,,0.11,Wunderground v.1.15,2013-09-13 04:29:00,
2013-09-13 00:35:00,68.1,67.5,29.60,South,181,0.0,4.0,98,0.00,,,0.11,Wunderground v.1.15,2013-09-13 04:35:00,
2013-09-13 00:40:00,67.9,67.3,29.60,South,181,0.0,0.0,98,0.00,,,0.11,Wunderground v.1.15,2013-09-13 04:40:00,
2013-09-13 00:46:00,68.1,67.5,29.61,SSW,205,2.0,4.0,98,0.00,,,0.11,Wunderground v.1.15,2013-09-13 04:46:00,
2013-09-13 00:51:00,68.1,67.5,29.61,NW,323,3.0,7.0,98,0.00,,,0.11,Wunderground v.1.15,2013-09-13 04:51:00,
2013-09-13 00:57:00,67.6,67.0,29.61,West,271,13.0,13.0,98,0.00,,,0.11,Wunderground v.1.15,2013-09-13 04:57:00,
2013-09-13 01:02:00,65.2,63.7,29.62,NW,314,3.0,6.0,95,0.00,,,0.12,Wunderground v.1.15,2013-09-13 05:02:00,
2013-09-13 01:08:00,64.2,62.7,29.62,NW,309,4.0,7.0,95,0.15,,,0.13,Wunderground v.1.15,2013-09-13 05:08:00,
2013-09-13 01:13:00,63.7,62.2,29.62,NNW,348,3.0,9.0,95,0.08,,,0.14,Wunderground v.1.15,2013-09-13 05:13:00,
2013-09-13 01:19:00,63.4,61.9,29.62,NNW,348,0.0,9.0,95,0.20,,,0.16,Wunderground v.1.15,2013-09-13 05:19:00,
2013-09-13 01:24:00,63.4,61.9,29.62,NNW,348,0.0,2.0,95,0.09,,,0.17,Wunderground v.1.15,2013-09-13 05:24:00,
2013-09-13 01:30:00,63.4,61.9,29.63,North,349,1.0,1.0,95,0.08,,,0.17,Wunderground v.1.15,2013-09-13 05:30:00,
2013-09-13 01:35:00,63.5,62.3,29.63,NNE,12,0.0,2.0,96,0.05,,,0.17,Wunderground v.1.15,2013-09-13 05:35:00,
2013-09-13 01:41:00,63.5,62.3,29.63,NNE,12,0.0,1.0,96,0.00,,,0.17,Wunderground v.1.15,2013-09-13 05:41:00,
2013-09-13 01:46:00,63.5,62.3,29.63,NNE,12,0.0,1.0,96,0.00,,,0.17,Wunderground v.1.15,2013-09-13 05:46:00,
2013-09-13 01:51:00,63.5,62.3,29.63,NNE,12,2.0,2.0,96,0.00,,,0.17,Wunderground v.1.15,2013-09-13 05:51:00,
2013-09-13 01:57:00,63.5,62.3,29.63,NNE,12,0.0,3.0,96,0.00,,,0.17,Wunderground v.1.15,2013-09-13 05:57:00,
2013-09-13 02:02:00,63.5,62.3,29.63,NNE,12,0.0,1.0,96,0.00,,,0.18,Wunderground v.1.15,2013-09-13 06:02:00,
2013-09-13 02:07:00,63.4,62.5,29.63,NNE,12,0.0,1.0,97,0.00,,,0.18,Wunderground v.1.15,2013-09-13 06:07:00,
2013-09-13 02:12:00,63.4,62.5,29.63,NNE,12,0.0,0.0,97,0.00,,,0.18,Wunderground v.1.15,2013-09-13 06:12:00,
2013-09-13 02:17:00,63.4,62.5,29.62,NNE,12,0.0,0.0,97,0.00,,,0.18,Wunderground v.1.15,2013-09-13 06:17:00,
2013-09-13 02:22:00,63.4,62.5,29.62,NNE,12,0.0,0.0,97,0.00,,,0.18,Wunderground v.1.15,2013-09-13 06:22:00,
2013-09-13 02:27:00,63.2,62.3,29.62,NNE,12,0.0,0.0,97,0.00,,,0.18,Wunderground v.1.15,2013-09-13 06:27:00,
2013-09-13 02:32:00,63.2,62.3,29.62,NNE,12,0.0,0.0,97,0.00,,,0.18,Wunderground v.1.15,2013-09-13 06:32:00,
2013-09-13 02:37:00,63.1,62.2,29.62,NNE,12,0.0,0.0,97,0.00,,,0.18,Wunderground v.1.15,2013-09-13 06:37:00,
2013-09-13 02:42:00,63.1,62.2,29.62,NNE,12,0.0,0.0,97,0.00,,,0.18,Wunderground v.1.15,2013-09-13 06:42:00,
2013-09-13 02:47:00,62.9,62.0,29.62,NNE,12,0.0,0.0,97,0.00,,,0.18,Wunderground v.1.15,2013-09-13 06:47:00,
2013-09-13 02:52:00,62.9,62.0,29.62,NNE,12,0.0,0.0,97,0.00,,,0.18,Wunderground v.1.15,2013-09-13 06:52:00,
2013-09-13 02:57:00,62.9,62.0,29.62,NNE,12,0.0,0.0,97,0.00,,,0.18,Wunderground v.1.15,2013-09-13 06:57:00,
2013-09-13 03:02:00,62.9,62.0,29.62,NNE,12,0.0,0.0,97,0.00,,,0.18,Wunderground v.1.15,2013-09-13 07:02:00,
2013-09-13 03:07:00,62.9,62.0,29.62,NNE,12,0.0,0.0,97,0.00,,,0.19,Wunderground v.1.15,2013-09-13 07:07:00,
2013-09-13 03:12:00,62.9,62.0,29.62,NNE,12,0.0,0.0,97,0.00,,,0.19,Wunderground v.1.15,2013-09-13 07:12:00,
2013-09-13 03:17:00,62.9,62.3,29.62,NNE,12,0.0,2.0,98,0.00,,,0.19,Wunderground v.1.15,2013-09-13 07:17:00,
2013-09-13 03:22:00,62.9,62.3,29.62,NNE,12,0.0,0.0,98,0.00,,,0.19,Wunderground v.1.15,2013-09-13 07:22:00,
2013-09-13 03:27:00,62.9,62.3,29.62,NNE,12,0.0,0.0,98,0.00,,,0.19,Wunderground v.1.15,2013-09-13 07:27:00,
2013-09-13 03:32:00,62.9,62.3,29.61,NNE,12,0.0,0.0,98,0.00,,,0.19,Wunderground v.1.15,2013-09-13 07:32:00,
2013-09-13 03:37:00,62.9,62.3,29.61,NNE,12,0.0,0.0,98,0.00,,,0.19,Wunderground v.1.15,2013-09-13 07:37:00,
2013-09-13 03:42:00,62.9,62.3,29.61,NNE,12,0.0,0.0,98,0.00,,,0.19,Wunderground v.1.15,2013-09-13 07:42:00,
2013-09-13 03:47:00,62.9,62.3,29.61,NNE,12,0.0,0.0,98,0.00,,,0.19,Wunderground v.1.15,2013-09-13 07:47:00,
2013-09-13 03:52:00,62.9,62.3,29.61,NNE,12,0.0,0.0,98,0.00,,,0.19,Wunderground v.1.15,2013-09-13 07:52:00,
2013-09-13 03:57:00,62.9,62.3,29.61,NNE,12,0.0,0.0,98,0.00,,,0.19,Wunderground v.1.15,2013-09-13 07:57:00,
2013-09-13 04:02:00,62.9,62.3,29.62,NNE,12,0.0,0.0,98,0.00,,,0.19,Wunderground v.1.15,2013-09-13 08:02:00,
2013-09-13 04:07:00,62.9,62.3,29.62,NNE,12,0.0,0.0,98,0.00,,,0.19,Wunderground v.1.15,2013-09-13 08:07:00,
2013-09-13 04:12:00,62.9,62.3,29.62,NNE,12,0.0,1.0,98,0.00,,,0.19,Wunderground v.1.15,2013-09-13 08:12:00,
2013-09-13 04:17:00,62.9,62.3,29.62,NNE,12,0.0,1.0,98,0.00,,,0.19,Wunderground v.1.15,2013-09-13 08:17:00,
2013-09-13 04:22:00,62.9,62.3,29.62,NNE,12,0.0,0.0,98,0.00,,,0.19,Wunderground v.1.15,2013-09-13 08:22:00,
2013-09-13 04:27:00,62.9,62.3,29.62,NNE,12,0.0,0.0,98,0.00,,,0.19,Wunderground v.1.15,2013-09-13 08:27:00,
2013-09-13 04:32:00,62.9,62.3,29.63,NNE,12,0.0,0.0,98,0.00,,,0.19,Wunderground v.1.15,2013-09-13 08:32:00,
2013-09-13 04:38:00,62.9,62.3,29.63,NNE,12,0.0,0.0,98,0.00,,,0.19,Wunderground v.1.15,2013-09-13 08:38:00,
2013-09-13 04:43:00,62.9,62.3,29.63,NNE,12,0.0,0.0,98,0.00,,,0.19,Wunderground v.1.15,2013-09-13 08:43:00,
2013-09-13 04:48:00,62.9,62.3,29.63,NNE,12,0.0,0.0,98,0.00,,,0.00,Wunderground v.1.15,2013-09-13 08:48:00,
2013-09-13 04:53:00,62.9,62.3,29.63,NNE,12,0.0,0.0,98,0.00,,,0.00,Wunderground v.1.15,2013-09-13 08:53:00,
2013-09-13 04:58:00,62.9,62.3,29.63,NNE,12,0.0,0.0,98,0.00,,,0.00,Wunderground v.1.15,2013-09-13 08:58:00,
2013-09-13 05:03:00,62.9,62.3,29.63,NNE,12,0.0,0.0,98,0.00,,,0.00,Wunderground v.1.15,2013-09-13 09:03:00,
2013-09-13 05:08:00,63.1,62.5,29.63,NNE,12,0.0,2.0,98,0.00,,,0.00,Wunderground v.1.15,2013-09-13 09:08:00,
2013-09-13 05:13:00,63.1,62.5,29.63,NNE,12,0.0,0.0,98,0.00,,,0.00,Wunderground v.1.15,2013-09-13 09:13:00,
2013-09-13 05:18:00,63.1,62.5,29.63,NNE,12,0.0,0.0,98,0.00,,,0.00,Wunderground v.1.15,2013-09-13 09:18:00,
2013-09-13 05:23:00,63.2,62.6,29.63,NNE,12,0.0,0.0,98,0.00,,,0.00,Wunderground v.1.15,2013-09-13 09:23:00,
2013-09-13 05:28:00,63.2,62.6,29.63,NNE,12,0.0,2.0,98,0.00,,,0.00,Wunderground v.1.15,2013-09-13 09:28:00,
2013-09-13 05:33:00,63.2,62.6,29.63,NNE,12,0.0,1.0,98,0.00,,,0.00,Wunderground v.1.15,2013-09-13 09:33:00,
2013-09-13 05:39:00,63.2,62.6,29.63,NNE,12,0.0,2.0,98,0.00,,,0.00,Wunderground v.1.15,2013-09-13 09:39:00,
2013-09-13 05:44:00,63.2,62.6,29.63,NNE,12,2.0,4.0,98,0.00,,,0.00,Wunderground v.1.15,2013-09-13 09:44:00,
2013-09-13 05:49:00,63.2,62.6,29.63,NNE,12,1.0,4.0,98,0.00,,,0.00,Wunderground v.1.15,2013-09-13 09:49:00,
2013-09-13 05:54:00,63.1,62.5,29.63,NNE,23,3.0,6.0,98,0.00,,,0.00,Wunderground v.1.15,2013-09-13 09:54:00,
2013-09-13 05:59:00,62.9,62.3,29.63,NNW,348,2.0,12.0,98,0.00,,,0.00,Wunderground v.1.15,2013-09-13 09:59:00,
2013-09-13 06:04:00,62.7,62.1,29.63,NNW,344,4.0,7.0,98,0.22,,,0.02,Wunderground v.1.15,2013-09-13 10:04:00,
2013-09-13 06:09:00,62.4,61.8,29.63,NNW,338,3.0,12.0,98,0.08,,,0.02,Wunderground v.1.15,2013-09-13 10:09:00,
2013-09-13 06:14:00,62.3,61.7,29.65,North,355,0.0,9.0,98,0.05,,,0.02,Wunderground v.1.15,2013-09-13 10:14:00,
2013-09-13 06:19:00,62.3,61.7,29.65,North,350,0.0,9.0,98,0.00,,,0.02,Wunderground v.1.15,2013-09-13 10:19:00,
2013-09-13 06:24:00,62.1,61.5,29.65,North,350,0.0,4.0,98,0.00,,,0.02,Wunderground v.1.15,2013-09-13 10:24:00,
2013-09-13 06:29:00,61.8,60.9,29.66,NNW,340,3.0,8.0,97,0.00,,,0.02,Wunderground v.1.15,2013-09-13 10:29:00,
2013-09-13 06:34:00,61.6,60.7,29.66,NNW,342,10.0,12.0,97,0.00,,,0.02,Wunderground v.1.15,2013-09-13 10:34:00,
2013-09-13 06:39:00,61.6,60.7,29.66,NNW,338,5.0,12.0,97,0.00,,,0.02,Wunderground v.1.15,2013-09-13 10:39:00,
2013-09-13 06:44:00,61.5,60.6,29.66,North,355,4.0,11.0,97,0.00,,,0.02,Wunderground v.1.15,2013-09-13 10:44:00,
2013-09-13 06:49:00,61.5,60.3,29.66,North,355,6.0,12.0,96,0.00,,,0.02,Wunderground v.1.15,2013-09-13 10:49:00,
2013-09-13 06:54:00,61.5,60.3,29.66,NNW,347,3.0,9.0,96,0.00,,,0.02,Wunderground v.1.15,2013-09-13 10:54:00,
2013-09-13 06:59:00,61.5,60.3,29.67,North,351,3.0,10.0,96,0.00,,,0.02,Wunderground v.1.15,2013-09-13 10:59:00,
2013-09-13 07:04:00,61.3,59.9,29.67,NNW,348,6.0,11.0,95,0.00,,,0.02,Wunderground v.1.15,2013-09-13 11:04:00,
2013-09-13 07:09:00,61.3,59.9,29.67,NNW,336,0.0,11.0,95,0.00,,,0.02,Wunderground v.1.15,2013-09-13 11:09:00,
2013-09-13 07:14:00,61.2,59.8,29.67,NNW,341,1.0,7.0,95,0.00,,,0.02,Wunderground v.1.15,2013-09-13 11:14:00,
2013-09-13 07:19:00,61.2,59.8,29.67,North,355,2.0,7.0,95,0.00,,,0.02,Wunderground v.1.15,2013-09-13 11:19:00,
2013-09-13 07:24:00,61.2,59.8,29.67,NNW,336,3.0,11.0,95,0.00,,,0.02,Wunderground v.1.15,2013-09-13 11:24:00,
2013-09-13 07:29:00,61.2,59.5,29.68,NNW,340,12.0,12.0,94,0.00,,,0.02,Wunderground v.1.15,2013-09-13 11:29:00,
2013-09-13 07:34:00,61.2,59.2,29.68,NNW,344,10.0,13.0,93,0.00,,,0.02,Wunderground v.1.15,2013-09-13 11:34:00,
2013-09-13 07:39:00,61.3,59.3,29.68,NNW,347,7.0,13.0,93,0.00,,,0.02,Wunderground v.1.15,2013-09-13 11:39:00,
2013-09-13 07:44:00,61.5,59.5,29.67,NNW,339,2.0,10.0,93,0.00,,,0.02,Wunderground v.1.15,2013-09-13 11:44:00,
2013-09-13 07:49:00,61.6,59.3,29.67,NNW,343,2.0,10.0,92,0.00,,,0.02,Wunderground v.1.15,2013-09-13 11:49:00,
2013-09-13 07:54:00,61.6,59.3,29.67,NNW,348,7.0,11.0,92,0.00,,,0.02,Wunderground v.1.15,2013-09-13 11:54:00,
2013-09-13 07:59:00,61.6,58.9,29.68,NNW,348,3.0,11.0,91,0.00,,,0.02,Wunderground v.1.15,2013-09-13 11:59:00,
2013-09-13 08:04:00,61.8,59.1,29.68,NNW,344,9.0,11.0,91,0.00,,,0.02,Wunderground v.1.15,2013-09-13 12:04:00,
2013-09-13 08:10:00,61.8,58.8,29.68,NNW,345,5.0,12.0,90,0.00,,,0.02,Wunderground v.1.15,2013-09-13 12:10:00,
2013-09-13 08:15:00,61.8,58.5,29.68,NNW,342,6.0,11.0,89,0.00,,,0.02,Wunderground v.1.15,2013-09-13 12:15:00,
2013-09-13 08:20:00,61.6,58.0,29.68,NNW,340,3.0,14.0,88,0.00,,,0.02,Wunderground v.1.15,2013-09-13 12:20:00,
2013-09-13 08:25:00,61.6,57.7,29.68,NNW,340,3.0,16.0,87,0.00,,,0.02,Wunderground v.1.15,2013-09-13 12:25:00,
2013-09-13 08:30:00,61.6,57.7,29.68,North,351,2.0,3.0,87,0.00,,,0.02,Wunderground v.1.15,2013-09-13 12:30:00,
2013-09-13 08:35:00,61.5,57.6,29.68,North,355,7.0,11.0,87,0.00,,,0.02,Wunderground v.1.15,2013-09-13 12:35:00,
2013-09-13 08:40:00,61.2,57.0,29.68,North,355,12.0,12.0,86,0.00,,,0.02,Wunderground v.1.15,2013-09-13 12:40:00,
2013-09-13 08:45:00,61.0,56.8,29.69,NNW,345,7.0,17.0,86,0.00,,,0.02,Wunderground v.1.15,2013-09-13 12:45:00,
2013-09-13 08:50:00,60.9,56.4,29.69,NNW,340,5.0,6.0,85,0.00,,,0.02,Wunderground v.1.15,2013-09-13 12:50:00,
2013-09-13 08:55:00,60.5,56.0,29.69,North,355,12.0,16.0,85,0.00,,,0.02,Wunderground v.1.15,2013-09-13 12:55:00,
2013-09-13 09:00:00,60.4,55.5,29.69,North,349,5.0,7.0,84,0.00,,,0.02,Wunderground v.1.15,2013-09-13 13:00:00,
2013-09-13 09:05:00,60.4,55.5,29.69,North,350,9.0,16.0,84,0.00,,,0.02,Wunderground v.1.15,2013-09-13 13:05:00,
2013-09-13 09:10:00,60.4,55.5,29.69,NNW,340,12.0,13.0,84,0.00,,,0.02,Wunderground v.1.15,2013-09-13 13:10:00,
2013-09-13 09:15:00,60.4,55.5,29.70,NNW,338,14.0,16.0,84,0.00,,,0.02,Wunderground v.1.15,2013-09-13 13:15:00,
2013-09-13 09:20:00,60.4,55.5,29.70,North,355,1.0,6.0,84,0.00,,,0.02,Wunderground v.1.15,2013-09-13 13:20:00,
2013-09-13 09:25:00,60.2,55.3,29.70,NNW,331,5.0,20.0,84,0.00,,,0.02,Wunderground v.1.15,2013-09-13 13:25:00,
2013-09-13 09:30:00,59.8,55.0,29.71,North,355,3.0,10.0,84,0.00,,,0.02,Wunderground v.1.15,2013-09-13 13:30:00,
2013-09-13 09:35:00,59.5,55.0,29.71,NNW,345,4.0,16.0,85,0.00,,,0.02,Wunderground v.1.15,2013-09-13 13:35:00,
2013-09-13 09:40:00,59.2,55.3,29.71,NNW,342,4.0,7.0,87,0.00,,,0.02,Wunderground v.1.15,2013-09-13 13:40:00,
2013-09-13 09:45:00,59.0,55.4,29.71,NNW,341,10.0,16.0,88,0.00,,,0.02,Wunderground v.1.15,2013-09-13 13:45:00,
2013-09-13 09:50:00,58.7,55.5,29.71,North,355,7.0,7.0,89,0.00,,,0.02,Wunderground v.1.15,2013-09-13 13:50:00,
2013-09-13 09:55:00,58.9,55.7,29.71,NNW,344,1.0,13.0,89,0.00,,,0.02,Wunderground v.1.15,2013-09-13 13:55:00,
2013-09-13 10:00:00,58.7,55.5,29.72,North,355,6.0,9.0,89,0.00,,,0.02,Wunderground v.1.15,2013-09-13 14:00:00,
2013-09-13 10:05:00,58.9,55.7,29.72,NNW,341,9.0,14.0,89,0.00,,,0.02,Wunderground v.1.15,2013-09-13 14:05:00,
2013-09-13 10:10:00,58.7,55.5,29.72,NNW,347,11.0,11.0,89,0.00,,,0.02,Wunderground v.1.15,2013-09-13 14:10:00,
2013-09-13 10:15:00,58.7,55.5,29.73,North,360,6.0,11.0,89,0.00,,,0.02,Wunderground v.1.15,2013-09-13 14:15:00,
2013-09-13 10:20:00,58.7,55.5,29.73,NNW,341,1.0,5.0,89,0.00,,,0.02,Wunderground v.1.15,2013-09-13 14:20:00,
2013-09-13 10:25:00,58.4,55.2,29.73,North,5,3.0,14.0,89,0.00,,,0.02,Wunderground v.1.15,2013-09-13 14:25:00,
2013-09-13 10:31:00,58.3,55.4,29.73,North,5,11.0,11.0,90,0.00,,,0.02,Wunderground v.1.15,2013-09-13 14:31:00,
2013-09-13 10:36:00,58.3,55.7,29.73,NNW,344,3.0,13.0,91,0.00,,,0.02,Wunderground v.1.15,2013-09-13 14:36:00,
2013-09-13 10:41:00,58.3,55.7,29.73,North,355,7.0,14.0,91,0.00,,,0.02,Wunderground v.1.15,2013-09-13 14:41:00,
2013-09-13 10:46:00,58.1,55.2,29.72,NNE,13,6.0,14.0,90,0.00,,,0.02,Wunderground v.1.15,2013-09-13 14:46:00,
2013-09-13 10:51:00,58.3,55.1,29.72,North,5,12.0,14.0,89,0.00,,,0.02,Wunderground v.1.15,2013-09-13 14:51:00,
2013-09-13 10:56:00,58.3,54.8,29.72,North,349,13.0,14.0,88,0.00,,,0.02,Wunderground v.1.15,2013-09-13 14:56:00,
2013-09-13 11:01:00,58.3,54.8,29.72,North,360,8.0,11.0,88,0.00,,,0.02,Wunderground v.1.15,2013-09-13 15:01:00,
2013-09-13 11:06:00,58.3,54.8,29.72,NNW,338,6.0,14.0,88,0.00,,,0.02,Wunderground v.1.15,2013-09-13 15:06:00,
2013-09-13 11:11:00,58.3,54.4,29.72,North,5,4.0,10.0,87,0.00,,,0.02,Wunderground v.1.15,2013-09-13 15:11:00,
2013-09-13 11:16:00,58.1,54.2,29.73,NNW,348,5.0,12.0,87,0.00,,,0.02,Wunderground v.1.15,2013-09-13 15:16:00,
2013-09-13 11:21:00,58.1,54.6,29.73,NNW,335,2.0,11.0,88,0.00,,,0.02,Wunderground v.1.15,2013-09-13 15:21:00,
2013-09-13 11:26:00,58.1,54.6,29.73,North,355,4.0,14.0,88,0.00,,,0.02,Wunderground v.1.15,2013-09-13 15:26:00,
2013-09-13 11:31:00,57.8,54.3,29.73,NNE,16,2.0,7.0,88,0.00,,,0.02,Wunderground v.1.15,2013-09-13 15:31:00,
2013-09-13 11:36:00,57.6,54.1,29.73,North,355,6.0,13.0,88,0.00,,,0.02,Wunderground v.1.15,2013-09-13 15:36:00,
2013-09-13 11:41:00,57.5,53.7,29.73,North,360,13.0,17.0,87,0.00,,,0.02,Wunderground v.1.15,2013-09-13 15:41:00,
2013-09-13 11:46:00,57.5,53.7,29.74,NNW,344,5.0,17.0,87,0.00,,,0.02,Wunderground v.1.15,2013-09-13 15:46:00,
2013-09-13 11:51:00,57.6,54.1,29.74,NNW,348,2.0,6.0,88,0.00,,,0.02,Wunderground v.1.15,2013-09-13 15:51:00,
2013-09-13 11:56:00,57.6,54.1,29.74,North,355,4.0,10.0,88,0.00,,,0.02,Wunderground v.1.15,2013-09-13 15:56:00,
2013-09-13 12:01:00,57.6,53.8,29.74,North,355,3.0,5.0,87,0.00,,,0.02,Wunderground v.1.15,2013-09-13 16:01:00,
2013-09-13 12:06:00,57.8,54.0,29.74,NNW,340,0.0,9.0,87,0.00,,,0.02,Wunderground v.1.15,2013-09-13 16:06:00,
2013-09-13 12:11:00,57.8,54.0,29.74,North,355,2.0,13.0,87,0.00,,,0.02,Wunderground v.1.15,2013-09-13 16:11:00,
2013-09-13 12:16:00,57.8,54.0,29.74,North,360,0.0,13.0,87,0.00,,,0.02,Wunderground v.1.15,2013-09-13 16:16:00,
2013-09-13 12:21:00,57.8,53.6,29.74,NNW,332,3.0,12.0,86,0.00,,,0.02,Wunderground v.1.15,2013-09-13 16:21:00,
2013-09-13 12:26:00,57.6,53.4,29.74,North,355,5.0,13.0,86,0.00,,,0.02,Wunderground v.1.15,2013-09-13 16:26:00,
2013-09-13 12:31:00,57.6,53.4,29.74,North,5,8.0,12.0,86,0.00,,,0.02,Wunderground v.1.15,2013-09-13 16:31:00,
2013-09-13 12:36:00,57.6,53.8,29.74,North,355,10.0,13.0,87,0.00,,,0.02,Wunderground v.1.15,2013-09-13 16:36:00,
2013-09-13 12:41:00,57.6,53.8,29.74,North,355,6.0,12.0,87,0.00,,,0.02,Wunderground v.1.15,2013-09-13 16:41:00,
2013-09-13 12:46:00,57.6,53.8,29.74,North,350,6.0,13.0,87,0.00,,,0.02,Wunderground v.1.15,2013-09-13 16:46:00,
2013-09-13 12:51:00,57.6,53.8,29.74,North,355,7.0,10.0,87,0.00,,,0.02,Wunderground v.1.15,2013-09-13 16:51:00,
2013-09-13 12:56:00,57.6,53.8,29.74,NNW,342,7.0,10.0,87,0.00,,,0.02,Wunderground v.1.15,2013-09-13 16:56:00,
2013-09-13 13:01:00,57.6,53.4,29.74,North,355,10.0,11.0,86,0.00,,,0.02,Wunderground v.1.15,2013-09-13 17:01:00,
2013-09-13 13:06:00,57.6,53.4,29.74,NNW,345,4.0,13.0,86,0.00,,,0.02,Wunderground v.1.15,2013-09-13 17:06:00,
2013-09-13 13:11:00,57.6,53.4,29.74,North,5,10.0,12.0,86,0.00,,,0.02,Wunderground v.1.15,2013-09-13 17:11:00,
2013-09-13 13:16:00,57.6,53.4,29.73,NNW,344,3.0,12.0,86,0.00,,,0.02,Wunderground v.1.15,2013-09-13 17:16:00,
2013-09-13 13:21:00,57.6,53.8,29.73,North,350,9.0,14.0,87,0.00,,,0.02,Wunderground v.1.15,2013-09-13 17:21:00,
2013-09-13 13:26:00,57.6,53.4,29.73,North,355,5.0,14.0,86,0.00,,,0.02,Wunderground v.1.15,2013-09-13 17:26:00,
2013-09-13 13:31:00,57.6,53.4,29.74,North,355,5.0,14.0,86,0.00,,,0.02,Wunderground v.1.15,2013-09-13 17:31:00,
2013-09-13 13:36:00,57.8,53.3,29.74,North,360,10.0,14.0,85,0.00,,,0.02,Wunderground v.1.15,2013-09-13 17:36:00,
2013-09-13 13:41:00,57.8,53.3,29.74,NNW,340,15.0,15.0,85,0.00,,,0.02,Wunderground v.1.15,2013-09-13 17:41:00,
2013-09-13 13:46:00,58.0,53.5,29.74,North,350,2.0,15.0,85,0.00,,,0.02,Wunderground v.1.15,2013-09-13 17:46:00,
2013-09-13 13:51:00,58.0,53.2,29.74,NNW,331,6.0,11.0,84,0.00,,,0.02,Wunderground v.1.15,2013-09-13 17:51:00,
2013-09-13 13:56:00,58.0,53.2,29.74,NNE,15,5.0,11.0,84,0.00,,,0.02,Wunderground v.1.15,2013-09-13 17:56:00,
2013-09-13 14:01:00,58.0,53.2,29.75,NNW,346,7.0,11.0,84,0.00,,,0.02,Wunderground v.1.15,2013-09-13 18:01:00,
2013-09-13 14:06:00,57.8,52.7,29.75,NNE,14,2.0,13.0,83,0.00,,,0.02,Wunderground v.1.15,2013-09-13 18:06:00,
2013-09-13 14:11:00,57.8,53.0,29.75,NE,40,6.0,10.0,84,0.00,,,0.02,Wunderground v.1.15,2013-09-13 18:11:00,
2013-09-13 14:16:00,58.0,53.2,29.74,NNE,15,3.0,10.0,84,0.00,,,0.02,Wunderground v.1.15,2013-09-13 18:16:00,
2013-09-13 14:22:00,58.1,53.3,29.74,NNW,346,3.0,12.0,84,0.00,,,0.02,Wunderground v.1.15,2013-09-13 18:22:00,
2013-09-13 14:27:00,58.4,53.6,29.74,North,360,0.0,14.0,84,0.00,,,0.02,Wunderground v.1.15,2013-09-13 18:27:00,
2013-09-13 14:32:00,59.0,53.5,29.74,North,360,1.0,10.0,82,0.00,,,0.02,Wunderground v.1.15,2013-09-13 18:32:00,
2013-09-13 14:37:00,59.5,54.0,29.74,North,5,9.0,16.0,82,0.00,,,0.02,Wunderground v.1.15,2013-09-13 18:37:00,
2013-09-13 14:42:00,59.5,53.3,29.74,North,9,0.0,11.0,80,0.00,,,0.02,Wunderground v.1.15,2013-09-13 18:42:00,
2013-09-13 14:47:00,59.6,53.4,29.74,NNW,342,6.0,11.0,80,0.00,,,0.02,Wunderground v.1.15,2013-09-13 18:47:00,
2013-09-13 14:52:00,59.5,53.7,29.74,NNW,343,3.0,6.0,81,0.00,,,0.02,Wunderground v.1.15,2013-09-13 18:52:00,
2013-09-13 14:57:00,59.3,53.1,29.74,NNW,333,3.0,13.0,80,0.00,,,0.02,Wunderground v.1.15,2013-09-13 18:57:00,
2013-09-13 15:02:00,59.2,53.0,29.75,NNW,343,10.0,11.0,80,0.00,,,0.02,Wunderground v.1.15,2013-09-13 19:02:00,
2013-09-13 15:07:00,58.9,52.4,29.75,NNE,20,5.0,12.0,79,0.00,,,0.02,Wunderground v.1.15,2013-09-13 19:07:00,
2013-09-13 15:12:00,58.9,53.1,29.75,North,11,6.0,10.0,81,0.00,,,0.02,Wunderground v.1.15,2013-09-13 19:12:00,
2013-09-13 15:17:00,58.7,52.9,29.75,North,11,3.0,14.0,81,0.00,,,0.02,Wunderground v.1.15,2013-09-13 19:17:00,
2013-09-13 15:22:00,58.7,52.9,29.75,NNE,13,0.0,6.0,81,0.00,,,0.02,Wunderground v.1.15,2013-09-13 19:22:00,
2013-09-13 15:27:00,58.7,53.2,29.75,North,360,5.0,10.0,82,0.00,,,0.02,Wunderground v.1.15,2013-09-13 19:27:00,
2013-09-13 15:32:00,58.9,53.4,29.75,NNE,33,4.0,9.0,82,0.00,,,0.02,Wunderground v.1.15,2013-09-13 19:32:00,
2013-09-13 15:37:00,59.2,53.4,29.75,North,5,1.0,10.0,81,0.00,,,0.02,Wunderground v.1.15,2013-09-13 19:37:00,
2013-09-13 15:42:00,59.2,53.0,29.75,NNE,13,3.0,9.0,80,0.00,,,0.02,Wunderground v.1.15,2013-09-13 19:42:00,
2013-09-13 15:47:00,59.2,53.0,29.76,North,355,5.0,16.0,80,0.00,,,0.02,Wunderground v.1.15,2013-09-13 19:47:00,
2013-09-13 15:52:00,59.2,53.0,29.76,NNW,327,7.0,12.0,80,0.00,,,0.02,Wunderground v.1.15,2013-09-13 19:52:00,
2013-09-13 15:57:00,59.3,53.1,29.76,North,5,5.0,12.0,80,0.00,,,0.02,Wunderground v.1.15,2013-09-13 19:57:00,
2013-09-13 16:02:00,59.3,53.1,29.76,NNE,13,0.0,5.0,80,0.00,,,0.02,Wunderground v.1.15,2013-09-13 20:02:00,
2013-09-13 16:07:00,59.3,53.1,29.76,North,360,1.0,10.0,80,0.00,,,0.02,Wunderground v.1.15,2013-09-13 20:07:00,
2013-09-13 16:12:00,59.2,52.7,29.76,NNE,16,10.0,12.0,79,0.00,,,0.02,Wunderground v.1.15,2013-09-13 20:12:00,
2013-09-13 16:17:00,59.0,52.5,29.77,North,355,3.0,12.0,79,0.00,,,0.02,Wunderground v.1.15,2013-09-13 20:17:00,
2013-09-13 16:22:00,58.9,52.7,29.77,North,355,5.0,13.0,80,0.00,,,0.02,Wunderground v.1.15,2013-09-13 20:22:00,
2013-09-13 16:27:00,58.9,52.4,29.77,North,5,4.0,13.0,79,0.00,,,0.02,Wunderground v.1.15,2013-09-13 20:27:00,
2013-09-13 16:32:00,58.9,52.7,29.77,North,5,3.0,8.0,80,0.00,,,0.02,Wunderground v.1.15,2013-09-13 20:32:00,
2013-09-13 16:37:00,58.9,52.7,29.77,North,360,5.0,11.0,80,0.00,,,0.02,Wunderground v.1.15,2013-09-13 20:37:00,
2013-09-13 16:42:00,58.9,52.4,29.77,North,351,1.0,8.0,79,0.00,,,0.02,Wunderground v.1.15,2013-09-13 20:42:00,
2013-09-13 16:47:00,58.9,52.4,29.77,North,355,1.0,10.0,79,0.00,,,0.02,Wunderground v.1.15,2013-09-13 20:47:00,
2013-09-13 16:52:00,58.9,52.4,29.77,North,350,9.0,11.0,79,0.00,,,0.02,Wunderground v.1.15,2013-09-13 20:52:00,
2013-09-13 16:57:00,58.6,52.4,29.77,ENE,68,6.0,13.0,80,0.00,,,0.02,Wunderground v.1.15,2013-09-13 20:57:00,
2013-09-13 17:02:00,58.1,52.6,29.77,NNE,18,0.0,14.0,82,0.00,,,0.02,Wunderground v.1.15,2013-09-13 21:02:00,
2013-09-13 17:07:00,57.8,53.0,29.77,NNE,13,0.0,14.0,84,0.00,,,0.02,Wunderground v.1.15,2013-09-13 21:07:00,
2013-09-13 17:12:00,57.5,52.7,29.77,North,5,3.0,10.0,84,0.00,,,0.02,Wunderground v.1.15,2013-09-13 21:12:00,
2013-09-13 17:17:00,57.2,52.7,29.77,North,11,9.0,10.0,85,0.00,,,0.02,Wunderground v.1.15,2013-09-13 21:17:00,
2013-09-13 17:22:00,57.2,52.7,29.77,North,360,7.0,7.0,85,0.00,,,0.02,Wunderground v.1.15,2013-09-13 21:22:00,
2013-09-13 17:27:00,57.0,52.2,29.77,North,355,2.0,12.0,84,0.00,,,0.02,Wunderground v.1.15,2013-09-13 21:27:00,
2013-09-13 17:32:00,57.2,52.4,29.78,North,360,0.0,11.0,84,0.00,,,0.02,Wunderground v.1.15,2013-09-13 21:32:00,
2013-09-13 17:37:00,57.2,52.1,29.78,North,5,1.0,11.0,83,0.00,,,0.02,Wunderground v.1.15,2013-09-13 21:37:00,
2013-09-13 17:42:00,57.3,51.9,29.78,North,360,2.0,9.0,82,0.00,,,0.02,Wunderground v.1.15,2013-09-13 21:42:00,
2013-09-13 17:47:00,57.3,51.5,29.78,North,350,3.0,10.0,81,0.00,,,0.02,Wunderground v.1.15,2013-09-13 21:47:00,
2013-09-13 17:52:00,57.5,52.0,29.78,North,350,1.0,6.0,82,0.00,,,0.02,Wunderground v.1.15,2013-09-13 21:52:00,
2013-09-13 17:57:00,57.5,52.0,29.78,NNW,348,5.0,10.0,82,0.00,,,0.02,Wunderground v.1.15,2013-09-13 21:57:00,
2013-09-13 18:02:00,57.5,51.7,29.78,North,355,1.0,7.0,81,0.00,,,0.02,Wunderground v.1.15,2013-09-13 22:02:00,
2013-09-13 18:07:00,57.5,51.7,29.78,NNW,334,11.0,13.0,81,0.00,,,0.02,Wunderground v.1.15,2013-09-13 22:07:00,
2013-09-13 18:12:00,57.5,51.7,29.78,NNW,342,5.0,10.0,81,0.00,,,0.02,Wunderground v.1.15,2013-09-13 22:12:00,
2013-09-13 18:17:00,57.5,51.7,29.79,NNW,347,0.0,10.0,81,0.00,,,0.02,Wunderground v.1.15,2013-09-13 22:17:00,
2013-09-13 18:22:00,57.5,52.0,29.79,NNW,333,0.0,7.0,82,0.00,,,0.02,Wunderground v.1.15,2013-09-13 22:22:00,
2013-09-13 18:27:00,57.2,52.1,29.79,NNW,343,7.0,14.0,83,0.00,,,0.02,Wunderground v.1.15,2013-09-13 22:27:00,
2013-09-13 18:32:00,56.9,52.1,29.80,NNW,339,0.0,5.0,84,0.00,,,0.02,Wunderground v.1.15,2013-09-13 22:32:00,
2013-09-13 18:37:00,56.6,52.1,29.80,NNW,334,4.0,9.0,85,0.00,,,0.02,Wunderground v.1.15,2013-09-13 22:37:00,
2013-09-13 18:42:00,56.5,51.7,29.80,NNW,346,5.0,10.0,84,0.00,,,0.02,Wunderground v.1.15,2013-09-13 22:42:00,
2013-09-13 18:47:00,56.5,51.4,29.80,NW,317,9.0,10.0,83,0.00,,,0.02,Wunderground v.1.15,2013-09-13 22:47:00,
2013-09-13 18:52:00,56.5,51.4,29.80,NNW,332,2.0,11.0,83,0.00,,,0.02,Wunderground v.1.15,2013-09-13 22:52:00,
2013-09-13 18:57:00,56.5,51.1,29.80,NNW,328,2.0,13.0,82,0.00,,,0.02,Wunderground v.1.15,2013-09-13 22:57:00,
2013-09-13 19:02:00,56.5,51.1,29.80,NNW,327,6.0,12.0,82,0.00,,,0.02,Wunderground v.1.15,2013-09-13 23:02:00,
2013-09-13 19:07:00,56.5,51.1,29.80,NNW,332,0.0,12.0,82,0.00,,,0.02,Wunderground v.1.15,2013-09-13 23:07:00,
2013-09-13 19:12:00,56.3,50.9,29.80,NNW,342,1.0,6.0,82,0.00,,,0.02,Wunderground v.1.15,2013-09-13 23:12:00,
2013-09-13 19:17:00,56.3,50.9,29.81,NNW,344,7.0,12.0,82,0.00,,,0.02,Wunderground v.1.15,2013-09-13 23:17:00,
2013-09-13 19:22:00,56.2,50.8,29.81,NNW,343,1.0,13.0,82,0.00,,,0.02,Wunderground v.1.15,2013-09-13 23:22:00,
2013-09-13 19:27:00,56.2,50.4,29.81,NW,322,7.0,13.0,81,0.00,,,0.02,Wunderground v.1.15,2013-09-13 23:27:00,
2013-09-13 19:32:00,56.2,50.8,29.81,NW,325,6.0,6.0,82,0.00,,,0.02,Wunderground v.1.15,2013-09-13 23:32:00,
2013-09-13 19:37:00,56.2,50.8,29.81,NNW,327,3.0,6.0,82,0.00,,,0.02,Wunderground v.1.15,2013-09-13 23:37:00,
2013-09-13 19:42:00,56.2,50.8,29.81,NNW,338,0.0,4.0,82,0.00,,,0.02,Wunderground v.1.15,2013-09-13 23:42:00,
2013-09-13 19:47:00,56.2,50.8,29.82,NNW,331,0.0,7.0,82,0.00,,,0.02,Wunderground v.1.15,2013-09-13 23:47:00,
2013-09-13 19:52:00,56.0,50.6,29.82,NW,319,5.0,12.0,82,0.00,,,0.02,Wunderground v.1.15,2013-09-13 23:52:00,
2013-09-13 19:57:00,55.7,50.6,29.82,NNW,348,6.0,12.0,83,0.00,,,0.02,Wunderground v.1.15,2013-09-13 23:57:00,
2013-09-13 20:02:00,55.6,50.8,29.83,North,350,0.0,9.0,84,0.00,,,0.02,Wunderground v.1.15,2013-09-14 00:02:00,
2013-09-13 20:07:00,55.4,50.6,29.83,NNW,348,0.0,9.0,84,0.00,,,0.02,Wunderground v.1.15,2013-09-14 00:07:00,
2013-09-13 20:12:00,55.4,50.6,29.83,North,355,0.0,3.0,84,0.00,,,0.02,Wunderground v.1.15,2013-09-14 00:12:00,
2013-09-13 20:18:00,55.3,50.5,29.83,North,355,0.0,6.0,84,0.00,,,0.02,Wunderground v.1.15,2013-09-14 00:18:00,
2013-09-13 20:23:00,55.3,50.5,29.83,NNW,346,7.0,9.0,84,0.00,,,0.02,Wunderground v.1.15,2013-09-14 00:23:00,
2013-09-13 20:28:00,55.3,50.2,29.83,North,355,5.0,9.0,83,0.00,,,0.02,Wunderground v.1.15,2013-09-14 00:28:00,
2013-09-13 20:33:00,55.4,50.0,29.84,NNW,348,1.0,10.0,82,0.00,,,0.02,Wunderground v.1.15,2013-09-14 00:33:00,
2013-09-13 20:38:00,55.6,50.2,29.84,NNW,348,4.0,10.0,82,0.00,,,0.02,Wunderground v.1.15,2013-09-14 00:38:00,
2013-09-13 20:43:00,55.6,49.9,29.84,North,360,1.0,14.0,81,0.00,,,0.02,Wunderground v.1.15,2013-09-14 00:43:00,
2013-09-13 20:48:00,55.7,49.6,29.85,NNW,338,1.0,14.0,80,0.00,,,0.02,Wunderground v.1.15,2013-09-14 00:48:00,
2013-09-13 20:53:00,55.6,49.2,29.85,NNW,343,5.0,7.0,79,0.00,,,0.02,Wunderground v.1.15,2013-09-14 00:53:00,
2013-09-13 20:58:00,55.6,49.2,29.85,North,350,5.0,12.0,79,0.00,,,0.02,Wunderground v.1.15,2013-09-14 00:58:00,
2013-09-13 21:03:00,55.6,49.2,29.85,North,355,3.0,12.0,79,0.00,,,0.02,Wunderground v.1.15,2013-09-14 01:03:00,
2013-09-13 21:08:00,55.3,49.2,29.85,NNW,348,0.0,13.0,80,0.00,,,0.02,Wunderground v.1.15,2013-09-14 01:08:00,
2013-09-13 21:13:00,55.1,49.4,29.85,North,355,5.0,12.0,81,0.00,,,0.02,Wunderground v.1.15,2013-09-14 01:13:00,
2013-09-13 21:18:00,55.0,49.6,29.85,NNW,346,1.0,12.0,82,0.00,,,0.02,Wunderground v.1.15,2013-09-14 01:18:00,
2013-09-13 21:23:00,54.8,49.4,29.85,North,355,6.0,9.0,82,0.00,,,0.02,Wunderground v.1.15,2013-09-14 01:23:00,
2013-09-13 21:28:00,54.8,49.4,29.85,North,355,4.0,9.0,82,0.00,,,0.02,Wunderground v.1.15,2013-09-14 01:28:00,
2013-09-13 21:33:00,54.8,49.7,29.85,NNW,346,0.0,11.0,83,0.00,,,0.02,Wunderground v.1.15,2013-09-14 01:33:00,
2013-09-13 21:38:00,54.7,49.6,29.85,NNW,348,1.0,11.0,83,0.00,,,0.02,Wunderground v.1.15,2013-09-14 01:38:00,
2013-09-13 21:44:00,54.7,49.3,29.85,NNW,339,0.0,7.0,82,0.00,,,0.02,Wunderground v.1.15,2013-09-14 01:44:00,
2013-09-13 21:49:00,54.8,49.4,29.85,NNW,339,1.0,7.0,82,0.00,,,0.02,Wunderground v.1.15,2013-09-14 01:49:00,
2013-09-13 21:54:00,54.8,49.4,29.85,NNW,339,2.0,3.0,82,0.00,,,0.02,Wunderground v.1.15,2013-09-14 01:54:00,
2013-09-13 21:59:00,55.0,49.6,29.85,NNW,340,0.0,6.0,82,0.00,,,0.02,Wunderground v.1.15,2013-09-14 01:59:00,
2013-09-13 22:04:00,55.0,49.3,29.85,North,11,2.0,11.0,81,0.00,,,0.02,Wunderground v.1.15,2013-09-14 02:04:00,
2013-09-13 22:09:00,55.0,48.9,29.85,North,355,3.0,11.0,80,0.00,,,0.02,Wunderground v.1.15,2013-09-14 02:09:00,
2013-09-13 22:14:00,55.1,49.4,29.85,NNW,330,4.0,10.0,81,0.00,,,0.02,Wunderground v.1.15,2013-09-14 02:14:00,
2013-09-13 22:19:00,55.0,48.9,29.85,NNW,342,5.0,11.0,80,0.00,,,0.02,Wunderground v.1.15,2013-09-14 02:19:00,
2013-09-13 22:24:00,55.1,48.7,29.85,North,5,9.0,11.0,79,0.00,,,0.02,Wunderground v.1.15,2013-09-14 02:24:00,
2013-09-13 22:29:00,55.1,48.7,29.86,NNW,348,3.0,11.0,79,0.00,,,0.02,Wunderground v.1.15,2013-09-14 02:29:00,
2013-09-13 22:34:00,55.1,49.0,29.86,NNW,347,0.0,11.0,80,0.00,,,0.02,Wunderground v.1.15,2013-09-14 02:34:00,
2013-09-13 22:39:00,55.0,49.3,29.86,North,355,4.0,11.0,81,0.00,,,0.02,Wunderground v.1.15,2013-09-14 02:39:00,
2013-09-13 22:44:00,54.8,49.1,29.87,NNW,346,2.0,7.0,81,0.00,,,0.02,Wunderground v.1.15,2013-09-14 02:44:00,
2013-09-13 22:49:00,54.8,49.4,29.87,NNW,345,4.0,10.0,82,0.00,,,0.02,Wunderground v.1.15,2013-09-14 02:49:00,
2013-09-13 22:54:00,54.7,49.0,29.87,North,5,4.0,12.0,81,0.00,,,0.02,Wunderground v.1.15,2013-09-14 02:54:00,
2013-09-13 22:59:00,54.7,49.0,29.87,NNW,340,6.0,13.0,81,0.00,,,0.02,Wunderground v.1.15,2013-09-14 02:59:00,
2013-09-13 23:04:00,54.7,49.0,29.87,North,350,6.0,9.0,81,0.00,,,0.02,Wunderground v.1.15,2013-09-14 03:04:00,
2013-09-13 23:09:00,54.5,48.8,29.87,NNW,333,6.0,12.0,81,0.00,,,0.02,Wunderground v.1.15,2013-09-14 03:09:00,
2013-09-13 23:14:00,54.7,49.0,29.87,NNW,335,1.0,15.0,81,0.00,,,0.02,Wunderground v.1.15,2013-09-14 03:14:00,
2013-09-13 23:19:00,54.5,48.8,29.87,NW,317,6.0,15.0,81,0.00,,,0.03,Wunderground v.1.15,2013-09-14 03:19:00,
2013-09-13 23:24:00,54.5,48.5,29.87,NNW,329,4.0,15.0,80,0.00,,,0.03,Wunderground v.1.15,2013-09-14 03:24:00,
2013-09-13 23:29:00,54.5,48.8,29.86,North,360,9.0,15.0,81,0.00,,,0.03,Wunderground v.1.15,2013-09-14 03:29:00,
2013-09-13 23:35:00,54.4,48.4,29.86,North,355,3.0,11.0,80,0.00,,,0.03,Wunderground v.1.15,2013-09-14 03:35:00,
2013-09-13 23:40:00,54.4,48.7,29.86,North,355,7.0,7.0,81,0.00,,,0.03,Wunderground v.1.15,2013-09-14 03:40:00,
2013-09-13 23:45:00,54.2,48.5,29.86,NNW,348,6.0,13.0,81,0.00,,,0.03,Wunderground v.1.15,2013-09-14 03:45:00,
2013-09-13 23:50:00,54.2,48.5,29.86,North,355,11.0,13.0,81,0.00,,,0.03,Wunderground v.1.15,2013-09-14 03:50:00,
2013-09-13 23:55:00,54.1,48.4,29.86,NNW,346,5.0,12.0,81,0.00,,,0.03,Wunderground v.1.15,2013-09-14 03:55:00,